Time;durP1;ratioP1;P1;durP2;ratioP2;P2;SDS_P1;SDS_P2;PMS_P1;PMS_P2;Temp;Humidity;BMP_temperature;BMP_pressure;BME280_temperature;BME280_humidity;BME280_pressure;Samples;Min_cycle;Max_cycle;Signal;HPM_P1;HPM_P2
2022/06/06 00:01:48;;;;;;;6.63;3.75;;;;;;;;;;5021002;28;20026;-51
2022/06/06 00:04:15;;;;;;;6.68;4.20;;;;;;;;;;5023235;28;20052;-52
2022/06/06 00:06:41;;;;;;;7.35;3.88;;;;;;;;;;5031031;28;20490;-53
2022/06/06 00:09:08;;;;;;;5.18;3.38;;;;;;;;;;5025344;28;20059;-51
2022/06/06 00:11:34;;;;;;;4.90;3.78;;;;;;;;;;5027111;28;20125;-53
2022/06/06 00:14:00;;;;;;;5.28;3.97;;;;;;;;;;5022008;28;20523;-50
2022/06/06 00:16:26;;;;;;;4.35;3.90;;;;;;;;;;5027130;28;20030;-52
2022/06/06 00:18:53;;;;;;;5.20;3.75;;;;;;;;;;5031290;28;20052;-51
2022/06/06 00:21:18;;;;;;;5.05;3.78;;;;;;;;;;5032200;28;20024;-53
2022/06/06 00:23:44;;;;;;;5.53;3.70;;;;;;;;;;5022632;28;20417;-53
2022/06/06 00:26:11;;;;;;;4.70;3.50;;;;;;;;;;5021441;28;20446;-51
2022/06/06 00:28:38;;;;;;;4.78;4.25;;;;;;;;;;5020962;28;20547;-50
2022/06/06 00:36:35;;;;;;;5.32;3.58;;;;;;;;;;5033090;28;20606;-53
2022/06/06 00:39:01;;;;;;;5.30;4.00;;;;;;;;;;5023034;28;20125;-52
2022/06/06 00:41:27;;;;;;;5.63;4.05;;;;;;;;;;5027179;28;20057;-50
2022/06/06 00:44:04;;;;;;;6.80;4.25;;;;;;;;;;5025400;28;20036;-51
2022/06/06 00:46:30;;;;;;;4.10;3.70;;;;;;;;;;5019306;28;20116;-50
2022/06/06 00:48:56;;;;;;;6.57;4.38;;;;;;;;;;5028805;28;20029;-50
2022/06/06 00:51:22;;;;;;;5.30;4.18;;;;;;;;;;5030695;28;20030;-51
2022/06/06 00:53:51;;;;;;;5.45;4.20;;;;;;;;;;5021980;28;20486;-53
2022/06/06 00:56:18;;;;;;;5.20;4.03;;;;;;;;;;5024407;28;20037;-50
2022/06/06 00:58:45;;;;;;;4.40;3.80;;;;;;;;;;5026154;28;20034;-51
2022/06/06 01:01:11;;;;;;;5.68;3.80;;;;;;;;;;5028731;28;20025;-54
2022/06/06 01:03:38;;;;;;;6.50;4.15;;;;;;;;;;5017442;28;20079;-51
2022/06/06 01:06:05;;;;;;;7.47;4.35;;;;;;;;;;5013362;28;20037;-54
2022/06/06 01:08:31;;;;;;;5.45;4.40;;;;;;;;;;5016977;28;20049;-54
2022/06/06 01:10:57;;;;;;;5.22;4.72;;;;;;;;;;5024515;28;20025;-54
2022/06/06 01:13:24;;;;;;;6.22;4.78;;;;;;;;;;5023389;28;20021;-54
2022/06/06 01:15:59;;;;;;;6.07;4.75;;;;;;;;;;5020341;28;20026;-54
2022/06/06 01:18:54;;;;;;;6.43;4.20;;;;;;;;;;5020967;28;20546;-52
2022/06/06 01:21:30;;;;;;;6.18;4.90;;;;;;;;;;4939907;28;20074;-54
2022/06/06 01:24:15;;;;;;;5.65;4.88;;;;;;;;;;5029149;28;20120;-54
2022/06/06 01:26:59;;;;;;;6.68;5.35;;;;;;;;;;5027846;28;20029;-55
2022/06/06 01:29:27;;;;;;;7.70;5.50;;;;;;;;;;5016186;28;20763;-54
2022/06/06 01:32:02;;;;;;;10.57;6.75;;;;;;;;;;5024477;28;20558;-54
2022/06/06 01:34:30;;;;;;;11.43;6.60;;;;;;;;;;5021187;28;20500;-54
2022/06/06 01:36:57;;;;;;;12.15;7.32;;;;;;;;;;5023077;28;20100;-55
2022/06/06 01:39:24;;;;;;;11.82;7.20;;;;;;;;;;5019744;28;20034;-54
2022/06/06 01:41:56;;;;;;;12.18;7.30;;;;;;;;;;5017154;28;20026;-53
2022/06/06 01:44:22;;;;;;;13.55;7.43;;;;;;;;;;5033032;28;20021;-53
2022/06/06 01:46:48;;;;;;;12.10;8.23;;;;;;;;;;5019219;28;20481;-54
2022/06/06 01:49:16;;;;;;;11.07;7.45;;;;;;;;;;5017320;28;20029;-53
2022/06/06 01:51:42;;;;;;;10.77;7.75;;;;;;;;;;5019702;28;20025;-51
2022/06/06 01:54:09;;;;;;;13.27;7.55;;;;;;;;;;5015090;28;20120;-52
2022/06/06 01:56:38;;;;;;;10.25;7.28;;;;;;;;;;5013747;28;20060;-53
2022/06/06 01:59:05;;;;;;;10.05;7.72;;;;;;;;;;5020759;28;20065;-51
2022/06/06 02:01:31;;;;;;;10.13;7.93;;;;;;;;;;5021045;28;20038;-51
2022/06/06 02:03:57;;;;;;;12.45;8.52;;;;;;;;;;5017007;28;20021;-54
2022/06/06 02:06:23;;;;;;;11.23;8.10;;;;;;;;;;5030268;28;20032;-53
2022/06/06 02:08:51;;;;;;;11.07;7.72;;;;;;;;;;5036610;28;20106;-50
2022/06/06 02:11:18;;;;;;;11.30;8.13;;;;;;;;;;5029864;28;20033;-53
2022/06/06 02:13:44;;;;;;;11.02;9.05;;;;;;;;;;5039300;28;20389;-51
2022/06/06 02:16:10;;;;;;;11.05;8.63;;;;;;;;;;5032076;28;20433;-52
2022/06/06 02:18:36;;;;;;;9.75;8.13;;;;;;;;;;5034493;28;20033;-50
2022/06/06 02:21:02;;;;;;;10.88;8.18;;;;;;;;;;5035080;28;20511;-54
2022/06/06 02:23:29;;;;;;;12.77;8.20;;;;;;;;;;5040516;28;20030;-55
2022/06/06 02:25:55;;;;;;;13.77;8.63;;;;;;;;;;5043243;28;20450;-55
2022/06/06 02:28:21;;;;;;;11.00;8.30;;;;;;;;;;5039378;28;20032;-55
2022/06/06 02:30:47;;;;;;;11.77;9.00;;;;;;;;;;5038798;28;20034;-55
2022/06/06 02:33:13;;;;;;;14.77;9.10;;;;;;;;;;5040504;28;20097;-54
2022/06/06 02:35:40;;;;;;;12.23;8.77;;;;;;;;;;5045581;28;20034;-55
2022/06/06 02:38:06;;;;;;;10.10;8.93;;;;;;;;;;5044376;28;20029;-56
2022/06/06 02:40:32;;;;;;;11.07;8.82;;;;;;;;;;5042240;28;20113;-57
2022/06/06 02:42:59;;;;;;;15.38;9.55;;;;;;;;;;5033317;28;20040;-56
2022/06/06 02:45:25;;;;;;;13.55;9.88;;;;;;;;;;5029123;28;20540;-54
2022/06/06 02:47:52;;;;;;;10.60;9.32;;;;;;;;;;5040421;28;20040;-57
2022/06/06 02:50:20;;;;;;;12.70;9.43;;;;;;;;;;5033240;28;20040;-56
2022/06/06 02:52:46;;;;;;;15.60;11.18;;;;;;;;;;5031857;28;20017;-56
2022/06/06 02:55:13;;;;;;;14.75;10.32;;;;;;;;;;5043340;28;20092;-56
2022/06/06 02:57:40;;;;;;;17.05;10.52;;;;;;;;;;5022164;28;20029;-56
2022/06/06 03:00:07;;;;;;;14.73;10.75;;;;;;;;;;5050795;28;20036;-57
2022/06/06 03:02:34;;;;;;;13.38;10.02;;;;;;;;;;5047868;28;20040;-53
2022/06/06 03:05:00;;;;;;;14.32;10.55;;;;;;;;;;5036578;28;20124;-56
2022/06/06 03:07:35;;;;;;;11.25;9.57;;;;;;;;;;5039231;28;20026;-56
2022/06/06 03:10:16;;;;;;;14.18;9.93;;;;;;;;;;5041250;28;20040;-55
2022/06/06 03:12:47;;;;;;;14.38;10.38;;;;;;;;;;5034478;28;20511;-54
2022/06/06 03:15:13;;;;;;;13.73;10.27;;;;;;;;;;5043174;28;20036;-56
2022/06/06 03:20:47;;;;;;;14.65;11.15;;;;;;;;;;5040335;28;20060;-56
2022/06/06 03:23:20;;;;;;;14.65;10.73;;;;;;;;;;5039966;28;20424;-53
2022/06/06 03:26:05;;;;;;;17.92;11.50;;;;;;;;;;5031496;28;20083;-55
2022/06/06 03:28:34;;;;;;;13.80;10.85;;;;;;;;;;5030750;28;20057;-57
2022/06/06 03:31:17;;;;;;;14.10;11.20;;;;;;;;;;5036768;28;20038;-56
2022/06/06 03:33:57;;;;;;;14.93;11.15;;;;;;;;;;5033987;28;20021;-55
2022/06/06 03:36:29;;;;;;;14.25;10.75;;;;;;;;;;5046007;28;20028;-55
2022/06/06 03:39:02;;;;;;;14.45;11.02;;;;;;;;;;5035999;28;20078;-55
2022/06/06 03:41:36;;;;;;;15.82;11.73;;;;;;;;;;5038980;28;20171;-54
2022/06/06 03:44:21;;;;;;;13.98;11.40;;;;;;;;;;5040147;28;20111;-55
2022/06/06 03:47:04;;;;;;;16.58;11.00;;;;;;;;;;5048292;28;20067;-56
2022/06/06 03:49:40;;;;;;;14.68;11.02;;;;;;;;;;5039311;28;20109;-56
2022/06/06 03:52:14;;;;;;;16.50;11.60;;;;;;;;;;5036828;28;20036;-54
2022/06/06 03:54:40;;;;;;;14.68;10.88;;;;;;;;;;5045367;28;20033;-56
2022/06/06 03:57:16;;;;;;;19.40;11.27;;;;;;;;;;5040576;28;20040;-56
2022/06/06 03:59:44;;;;;;;13.25;11.13;;;;;;;;;;5042535;28;20025;-55
2022/06/06 04:02:12;;;;;;;13.73;10.55;;;;;;;;;;5047700;28;20061;-55
2022/06/06 04:04:38;;;;;;;14.80;11.70;;;;;;;;;;5041049;28;20546;-55
2022/06/06 04:07:04;;;;;;;16.08;11.32;;;;;;;;;;5038353;28;20037;-55
2022/06/06 04:09:32;;;;;;;16.60;11.88;;;;;;;;;;5039284;28;20054;-56
2022/06/06 04:12:10;;;;;;;16.02;11.32;;;;;;;;;;5031555;28;20523;-56
2022/06/06 04:14:42;;;;;;;13.40;10.15;;;;;;;;;;5042125;28;20067;-56
2022/06/06 04:17:26;;;;;;;18.45;12.35;;;;;;;;;;5036626;28;20040;-56
2022/06/06 04:20:00;;;;;;;14.93;10.45;;;;;;;;;;5045547;28;20033;-55
2022/06/06 04:22:42;;;;;;;12.70;10.07;;;;;;;;;;5040457;28;20654;-56
2022/06/06 04:25:11;;;;;;;17.55;11.65;;;;;;;;;;5039424;28;20082;-57
2022/06/06 04:27:40;;;;;;;15.35;11.07;;;;;;;;;;5037532;28;20024;-57
2022/06/06 04:30:09;;;;;;;13.68;10.90;;;;;;;;;;5038861;28;20025;-56
2022/06/06 04:32:53;;;;;;;15.60;11.02;;;;;;;;;;5042780;28;20353;-53
2022/06/06 04:35:26;;;;;;;15.82;11.30;;;;;;;;;;5033923;28;20030;-56
2022/06/06 04:37:52;;;;;;;;;;;;;;;;;;5045934;28;20037;-54
2022/06/06 04:40:23;;;;;;;15.55;11.02;;;;;;;;;;5042615;28;20326;-54
2022/06/06 04:42:56;;;;;;;11.50;10.05;;;;;;;;;;5029708;28;20051;-56
2022/06/06 04:45:42;;;;;;;11.73;9.35;;;;;;;;;;5042521;28;21366;-54
2022/06/06 04:48:09;;;;;;;15.77;11.70;;;;;;;;;;5043971;28;20539;-56
2022/06/06 04:50:35;;;;;;;17.25;11.43;;;;;;;;;;5029778;28;20022;-56
2022/06/06 04:53:07;;;;;;;15.43;10.18;;;;;;;;;;5035716;28;20092;-52
2022/06/06 04:55:33;;;;;;;12.95;10.13;;;;;;;;;;5038555;28;20032;-54
2022/06/06 04:58:01;;;;;;;12.82;9.63;;;;;;;;;;5045789;28;20024;-56
2022/06/06 05:00:27;;;;;;;13.02;9.75;;;;;;;;;;5041888;28;20033;-54
2022/06/06 05:02:53;;;;;;;12.75;9.63;;;;;;;;;;5038188;28;20029;-56
2022/06/06 05:05:24;;;;;;;11.10;9.20;;;;;;;;;;5044396;28;20033;-54
2022/06/06 05:08:03;;;;;;;12.95;10.05;;;;;;;;;;5039869;28;20396;-54
2022/06/06 05:10:42;;;;;;;12.77;9.98;;;;;;;;;;5027146;28;20049;-55
2022/06/06 05:13:22;;;;;;;13.43;10.05;;;;;;;;;;5035172;28;20037;-56
2022/06/06 05:15:54;;;;;;;11.25;9.05;;;;;;;;;;5041629;28;20101;-54
2022/06/06 05:18:33;;;;;;;13.77;9.30;;;;;;;;;;5048112;28;20028;-56
2022/06/06 05:20:58;;;;;;;12.00;8.85;;;;;;;;;;5041243;28;20103;-55
2022/06/06 05:23:43;;;;;;;11.25;9.15;;;;;;;;;;5039033;28;20033;-57
2022/06/06 05:26:28;;;;;;;9.68;8.02;;;;;;;;;;5044630;28;20445;-55
2022/06/06 05:29:00;;;;;;;12.30;8.18;;;;;;;;;;5038568;28;20029;-56
2022/06/06 05:31:26;;;;;;;9.55;8.05;;;;;;;;;;5038359;28;20112;-56
2022/06/06 05:34:07;;;;;;;9.18;7.22;;;;;;;;;;5042561;28;20036;-54
2022/06/06 05:36:52;;;;;;;8.30;7.05;;;;;;;;;;5029588;28;20030;-53
2022/06/06 05:39:22;;;;;;;13.10;7.95;;;;;;;;;;5036032;28;20018;-56
2022/06/06 05:42:04;;;;;;;8.07;6.60;;;;;;;;;;5036969;28;20033;-55
2022/06/06 05:44:38;;;;;;;8.20;6.47;;;;;;;;;;5031020;28;20041;-56
2022/06/06 05:47:13;;;;;;;8.02;6.60;;;;;;;;;;5044915;28;20044;-55
2022/06/06 05:49:48;;;;;;;9.18;7.13;;;;;;;;;;5046622;28;20368;-54
2022/06/06 05:52:20;;;;;;;9.65;6.93;;;;;;;;;;5037897;28;20032;-56
2022/06/06 05:54:52;;;;;;;8.65;6.18;;;;;;;;;;5039346;28;20058;-56
2022/06/06 05:57:28;;;;;;;7.10;6.32;;;;;;;;;;5007377;28;20026;-56
2022/06/06 06:00:03;;;;;;;7.93;6.68;;;;;;;;;;5035433;28;20170;-54
2022/06/06 06:02:29;;;;;;;7.43;6.57;;;;;;;;;;5032656;28;20128;-54
2022/06/06 06:05:01;;;;;;;9.30;6.10;;;;;;;;;;5038687;28;20409;-55
2022/06/06 06:07:48;;;;;;;8.68;7.00;;;;;;;;;;5040012;28;20112;-56
2022/06/06 06:10:16;;;;;;;10.13;6.78;;;;;;;;;;5035147;28;20168;-54
2022/06/06 06:13:09;;;;;;;7.30;5.82;;;;;;;;;;5040868;28;20025;-55
2022/06/06 06:15:40;;;;;;;8.43;5.90;;;;;;;;;;5042091;28;20029;-54
2022/06/06 06:18:11;;;;;;;7.55;5.88;;;;;;;;;;5047258;28;20409;-55
2022/06/06 06:20:44;;;;;;;7.78;6.20;;;;;;;;;;5044014;28;20040;-55
2022/06/06 06:23:13;;;;;;;6.70;5.82;;;;;;;;;;5039249;28;20041;-56
2022/06/06 06:25:40;;;;;;;7.32;5.80;;;;;;;;;;5039036;28;20037;-56
2022/06/06 06:28:08;;;;;;;8.73;5.57;;;;;;;;;;5034723;28;20108;-53
2022/06/06 06:31:00;;;;;;;7.55;5.25;;;;;;;;;;5040992;28;20025;-54
2022/06/06 06:33:38;;;;;;;5.95;4.43;;;;;;;;;;5041117;28;20069;-56
2022/06/06 06:36:05;;;;;;;8.05;5.38;;;;;;;;;;5039021;28;20029;-55
2022/06/06 06:38:34;;;;;;;8.20;5.32;;;;;;;;;;5045954;28;20033;-54
2022/06/06 06:41:15;;;;;;;9.10;5.50;;;;;;;;;;5036085;28;20066;-55
2022/06/06 06:43:49;;;;;;;5.93;4.60;;;;;;;;;;5033077;28;20643;-56
2022/06/06 06:46:27;;;;;;;5.38;4.50;;;;;;;;;;5045158;28;20037;-55
2022/06/06 06:48:55;;;;;;;7.25;4.47;;;;;;;;;;5040401;28;20083;-56
2022/06/06 06:51:31;;;;;;;7.70;5.32;;;;;;;;;;5029631;28;20052;-55
2022/06/06 06:54:16;;;;;;;6.57;5.07;;;;;;;;;;5041024;28;20034;-55
2022/06/06 06:56:49;;;;;;;6.68;5.05;;;;;;;;;;5035758;28;20029;-54
2022/06/06 06:59:38;;;;;;;5.57;4.22;;;;;;;;;;5039734;28;20524;-53
2022/06/06 07:08:32;;;;;;;6.68;4.03;;;;;;;;;;5040179;28;20051;-53
2022/06/06 07:10:58;;;;;;;5.95;4.05;;;;;;;;;;5041542;28;20075;-54
2022/06/06 07:13:59;;;;;;;8.18;4.13;;;;;;;;;;5034940;28;20097;-54
2022/06/06 07:16:27;;;;;;;5.95;4.05;;;;;;;;;;4961595;28;20494;-54
2022/06/06 07:18:58;;;;;;;7.35;4.30;;;;;;;;;;5019872;28;20044;-55
2022/06/06 07:21:25;;;;;;;6.95;3.88;;;;;;;;;;5035474;28;20026;-55
2022/06/06 07:23:53;;;;;;;5.85;3.83;;;;;;;;;;5048138;28;20021;-52
2022/06/06 07:26:19;;;;;;;4.78;3.63;;;;;;;;;;5041186;28;20083;-56
2022/06/06 07:28:45;;;;;;;5.38;4.00;;;;;;;;;;5045680;28;20025;-54
2022/06/06 07:31:29;;;;;;;6.90;4.00;;;;;;;;;;5040195;28;20030;-55
2022/06/06 07:34:06;;;;;;;5.60;4.00;;;;;;;;;;5033709;28;20100;-56
2022/06/06 07:36:35;;;;;;;4.88;3.53;;;;;;;;;;5044866;28;20048;-55
2022/06/06 07:39:04;;;;;;;7.10;3.90;;;;;;;;;;5029552;28;20112;-56
2022/06/06 07:41:42;;;;;;;8.05;3.70;;;;;;;;;;5038676;28;20037;-55
2022/06/06 07:44:21;;;;;;;5.28;3.15;;;;;;;;;;5043681;28;20040;-55
2022/06/06 07:47:11;;;;;;;6.97;3.35;;;;;;;;;;5041114;28;20025;-53
2022/06/06 07:49:59;;;;;;;4.00;3.13;;;;;;;;;;5045386;28;20459;-54
2022/06/06 07:52:38;;;;;;;5.82;3.28;;;;;;;;;;5054032;28;20078;-54
2022/06/06 07:55:04;;;;;;;4.72;3.20;;;;;;;;;;5051845;28;20033;-56
2022/06/06 07:57:49;;;;;;;4.45;3.25;;;;;;;;;;5048131;28;20024;-54
2022/06/06 08:00:19;;;;;;;5.53;3.33;;;;;;;;;;5039684;28;20029;-56
2022/06/06 08:03:05;;;;;;;5.43;2.75;;;;;;;;;;5035679;28;20072;-52
2022/06/06 08:05:38;;;;;;;5.45;3.13;;;;;;;;;;5039060;28;20029;-55
2022/06/06 08:08:09;;;;;;;6.10;3.03;;;;;;;;;;5035051;28;20046;-55
2022/06/06 08:10:42;;;;;;;5.57;3.00;;;;;;;;;;5037213;28;20029;-55
2022/06/06 08:13:10;;;;;;;5.18;2.55;;;;;;;;;;5053319;28;20057;-56
2022/06/06 08:16:01;;;;;;;7.78;2.47;;;;;;;;;;5036109;28;20423;-55
2022/06/06 08:18:36;;;;;;;4.82;3.00;;;;;;;;;;5045904;28;20527;-53
2022/06/06 08:21:10;;;;;;;3.25;2.38;;;;;;;;;;5047159;28;20037;-55
2022/06/06 08:23:37;;;;;;;8.48;3.35;;;;;;;;;;5049123;28;20198;-55
2022/06/06 08:26:03;;;;;;;5.57;2.53;;;;;;;;;;5053435;28;20056;-56
2022/06/06 08:28:31;;;;;;;3.97;2.40;;;;;;;;;;5028056;28;20029;-53
2022/06/06 08:30:57;;;;;;;4.30;2.88;;;;;;;;;;5035205;28;20037;-54
2022/06/06 08:33:24;;;;;;;3.63;2.58;;;;;;;;;;5038146;28;20556;-55
2022/06/06 08:35:50;;;;;;;3.55;2.40;;;;;;;;;;5044913;28;20450;-53
2022/06/06 08:38:27;;;;;;;5.75;2.72;;;;;;;;;;5046899;28;20042;-55
2022/06/06 08:40:57;;;;;;;5.20;2.63;;;;;;;;;;5047583;28;20411;-55
2022/06/06 08:43:42;;;;;;;3.80;2.33;;;;;;;;;;5034879;28;20055;-55
2022/06/06 08:46:28;;;;;;;4.28;2.53;;;;;;;;;;5044714;28;20500;-54
2022/06/06 08:48:54;;;;;;;3.70;2.53;;;;;;;;;;5049302;28;20090;-56
2022/06/06 08:51:24;;;;;;;3.70;2.70;;;;;;;;;;5045869;28;20477;-56
2022/06/06 08:54:09;;;;;;;5.65;2.60;;;;;;;;;;5044706;28;20119;-56
2022/06/06 08:56:54;;;;;;;3.20;2.30;;;;;;;;;;5035625;28;20029;-55
2022/06/06 08:59:48;;;;;;;3.63;2.47;;;;;;;;;;5047249;28;20489;-56
2022/06/06 09:02:33;;;;;;;3.80;2.53;;;;;;;;;;5039598;28;20131;-55
2022/06/06 09:05:32;;;;;;;5.35;2.55;;;;;;;;;;5038060;28;20512;-55
2022/06/06 09:08:17;;;;;;;4.10;2.40;;;;;;;;;;5002215;28;20055;-55
2022/06/06 09:10:58;;;;;;;3.55;2.38;;;;;;;;;;5037151;28;20029;-54
2022/06/06 09:13:24;;;;;;;3.90;2.78;;;;;;;;;;5050719;28;20119;-57
2022/06/06 09:16:15;;;;;;;3.80;2.55;;;;;;;;;;5053092;28;20518;-55
2022/06/06 09:19:00;;;;;;;5.35;2.65;;;;;;;;;;5061936;28;20029;-56
2022/06/06 09:21:45;;;;;;;3.30;2.22;;;;;;;;;;5045541;28;20482;-56
2022/06/06 09:24:20;;;;;;;8.55;2.70;;;;;;;;;;5045422;28;20524;-56
2022/06/06 09:26:52;;;;;;;4.60;2.47;;;;;;;;;;5061204;28;20538;-56
2022/06/06 09:29:18;;;;;;;3.60;2.13;;;;;;;;;;5053265;28;20033;-55
2022/06/06 09:31:44;;;;;;;5.53;3.10;;;;;;;;;;5049572;28;20034;-55
2022/06/06 09:34:21;;;;;;;3.80;2.40;;;;;;;;;;5042951;28;20395;-55
2022/06/06 09:37:00;;;;;;;4.75;2.45;;;;;;;;;;5039137;28;20481;-57
2022/06/06 09:39:41;;;;;;;3.20;2.30;;;;;;;;;;5053961;28;20052;-54
2022/06/06 09:42:15;;;;;;;3.28;2.30;;;;;;;;;;5055228;28;20036;-55
2022/06/06 09:45:00;;;;;;;2.97;2.22;;;;;;;;;;5044107;28;20036;-55
2022/06/06 09:47:44;;;;;;;4.45;2.08;;;;;;;;;;5047422;28;20426;-57
2022/06/06 09:50:33;;;;;;;6.28;2.30;;;;;;;;;;5031682;28;20032;-54
2022/06/06 09:53:16;;;;;;;3.53;2.33;;;;;;;;;;5054988;28;20032;-55
2022/06/06 09:59:03;;;;;;;3.58;2.38;;;;;;;;;;5041275;28;20044;-56
2022/06/06 10:01:48;;;;;;;2.70;2.17;;;;;;;;;;5040348;28;20037;-56
2022/06/06 10:04:27;;;;;;;3.92;2.15;;;;;;;;;;5036145;28;20034;-56
2022/06/06 10:07:11;;;;;;;5.95;2.33;;;;;;;;;;5048009;28;20040;-56
2022/06/06 10:09:56;;;;;;;5.75;2.20;;;;;;;;;;5020945;28;20041;-54
2022/06/06 10:12:34;;;;;;;3.05;1.88;;;;;;;;;;5031202;28;20064;-56
2022/06/06 10:15:12;;;;;;;4.80;2.35;;;;;;;;;;5022435;28;20541;-55
2022/06/06 10:17:41;;;;;;;2.45;1.90;;;;;;;;;;5023519;28;20043;-57
2022/06/06 10:20:26;;;;;;;3.55;1.98;;;;;;;;;;5030726;28;20483;-55
2022/06/06 10:23:17;;;;;;;7.63;2.42;;;;;;;;;;5000978;28;20045;-54
2022/06/06 10:26:06;;;;;;;3.38;2.25;;;;;;;;;;5022025;28;20440;-56
2022/06/06 10:28:38;;;;;;;3.00;2.00;;;;;;;;;;5021651;28;20831;-54
2022/06/06 10:31:16;;;;;;;3.13;2.00;;;;;;;;;;5019321;28;20026;-56
2022/06/06 10:33:57;;;;;;;2.60;1.85;;;;;;;;;;5018795;28;20412;-56
2022/06/06 10:36:42;;;;;;;4.38;2.15;;;;;;;;;;5022718;28;20037;-56
2022/06/06 10:39:27;;;;;;;2.58;1.65;;;;;;;;;;5028982;28;20030;-56
2022/06/06 10:41:53;;;;;;;2.58;1.70;;;;;;;;;;5015812;28;20057;-56
2022/06/06 10:44:40;;;;;;;4.47;2.30;;;;;;;;;;5021607;28;20473;-56
2022/06/06 10:47:15;;;;;;;5.65;2.10;;;;;;;;;;5025841;28;20508;-56
2022/06/06 10:49:55;;;;;;;5.63;2.33;;;;;;;;;;5028896;28;20396;-55
2022/06/06 10:52:40;;;;;;;5.53;1.95;;;;;;;;;;5029691;28;20474;-56
2022/06/06 10:55:08;;;;;;;2.45;1.80;;;;;;;;;;5026931;28;20530;-57
2022/06/06 10:57:51;;;;;;;2.65;1.83;;;;;;;;;;5026083;28;20497;-55
2022/06/06 11:00:23;;;;;;;3.28;1.88;;;;;;;;;;5026831;28;20025;-56
2022/06/06 11:03:07;;;;;;;3.38;2.10;;;;;;;;;;5030375;28;20033;-56
2022/06/06 11:05:52;;;;;;;3.10;1.77;;;;;;;;;;5023657;28;20033;-55
2022/06/06 11:08:27;;;;;;;2.55;1.55;;;;;;;;;;5030653;28;20058;-56
2022/06/06 11:11:05;;;;;;;4.97;1.98;;;;;;;;;;5022334;28;20151;-54
2022/06/06 11:13:40;;;;;;;2.65;1.85;;;;;;;;;;5034782;28;20060;-56
2022/06/06 11:16:24;;;;;;;2.47;1.33;;;;;;;;;;5036693;28;20025;-56
2022/06/06 11:19:05;;;;;;;2.08;1.40;;;;;;;;;;5037411;28;20123;-57
2022/06/06 11:21:55;;;;;;;3.25;1.75;;;;;;;;;;5045234;28;20037;-57
2022/06/06 11:24:29;;;;;;;3.42;1.80;;;;;;;;;;5035301;28;20041;-55
2022/06/06 11:27:05;;;;;;;2.65;1.95;;;;;;;;;;5036411;28;20093;-55
2022/06/06 11:29:43;;;;;;;5.72;2.05;;;;;;;;;;5036263;28;20039;-56
2022/06/06 11:32:22;;;;;;;7.22;1.70;;;;;;;;;;5024947;28;20458;-56
2022/06/06 11:34:58;;;;;;;3.75;1.88;;;;;;;;;;5033324;28;20025;-55
2022/06/06 11:37:34;;;;;;;1.77;1.40;;;;;;;;;;5044508;28;20557;-55
2022/06/06 11:40:13;;;;;;;2.83;1.73;;;;;;;;;;5049060;28;20104;-57
2022/06/06 11:42:59;;;;;;;2.20;1.58;;;;;;;;;;5051129;28;20162;-55
2022/06/06 11:45:49;;;;;;;2.47;1.40;;;;;;;;;;5053000;28;20512;-57
2022/06/06 11:48:39;;;;;;;2.75;1.48;;;;;;;;;;5039619;28;20119;-56
2022/06/06 11:51:05;;;;;;;2.72;1.40;;;;;;;;;;5053007;28;20119;-57
2022/06/06 11:53:44;;;;;;;2.53;1.48;;;;;;;;;;5053054;28;20396;-56
2022/06/06 11:56:25;;;;;;;2.58;1.50;;;;;;;;;;5027223;28;20496;-56
2022/06/06 11:59:02;;;;;;;2.33;1.50;;;;;;;;;;5039425;28;20116;-55
2022/06/06 12:01:49;;;;;;;3.67;1.92;;;;;;;;;;5049181;28;20140;-55
2022/06/06 12:04:34;;;;;;;3.35;1.63;;;;;;;;;;5043331;28;20120;-55
2022/06/06 12:07:20;;;;;;;2.97;1.83;;;;;;;;;;5045288;28;20477;-56
2022/06/06 12:09:52;;;;;;;4.78;1.98;;;;;;;;;;5026787;28;20028;-56
2022/06/06 12:12:37;;;;;;;3.50;2.00;;;;;;;;;;5026388;28;20036;-55
2022/06/06 12:15:19;;;;;;;3.78;1.45;;;;;;;;;;5022721;28;20037;-57
2022/06/06 12:18:14;;;;;;;3.35;1.30;;;;;;;;;;5033160;28;20021;-56
2022/06/06 12:20:55;;;;;;;3.75;1.50;;;;;;;;;;4944292;28;20109;-56
2022/06/06 12:23:40;;;;;;;2.70;1.88;;;;;;;;;;5020342;28;20037;-54
2022/06/06 12:26:23;;;;;;;4.00;1.80;;;;;;;;;;5023007;28;21526;-55
2022/06/06 12:28:49;;;;;;;;;;;;;;;;;;5026081;28;20465;-56
2022/06/06 12:31:27;;;;;;;3.22;1.90;;;;;;;;;;5022319;28;19913;-54
2022/06/06 12:33:53;;;;;;;4.85;1.95;;;;;;;;;;5025949;28;20022;-55
2022/06/06 12:36:30;;;;;;;2.15;1.67;;;;;;;;;;5029860;28;20030;-56
2022/06/06 12:39:08;;;;;;;5.00;1.27;;;;;;;;;;5028849;28;20048;-55
2022/06/06 12:41:53;;;;;;;2.47;1.58;;;;;;;;;;5029170;28;20029;-56
2022/06/06 12:44:28;;;;;;;2.45;1.45;;;;;;;;;;5031863;28;20112;-56
2022/06/06 12:47:13;;;;;;;2.25;1.50;;;;;;;;;;5039537;28;20108;-53
2022/06/06 12:49:48;;;;;;;2.95;1.75;;;;;;;;;;5022258;28;20494;-56
2022/06/06 12:52:22;;;;;;;2.45;1.60;;;;;;;;;;5024171;28;20037;-55
2022/06/06 12:57:47;;;;;;;3.63;1.50;;;;;;;;;;5025961;28;20065;-54
2022/06/06 13:00:14;;;;;;;4.10;1.80;;;;;;;;;;5031146;28;20026;-57
2022/06/06 13:02:57;;;;;;;4.90;1.90;;;;;;;;;;5023903;28;20091;-56
2022/06/06 13:05:45;;;;;;;2.60;1.30;;;;;;;;;;5023692;28;20032;-55
2022/06/06 13:08:19;;;;;;;4.55;1.88;;;;;;;;;;5030060;28;20109;-56
2022/06/06 13:11:03;;;;;;;1.40;1.10;;;;;;;;;;5040192;28;20494;-56
2022/06/06 13:13:29;;;;;;;2.75;1.33;;;;;;;;;;5041315;28;20425;-55
2022/06/06 13:15:55;;;;;;;2.58;1.40;;;;;;;;;;5046407;28;20025;-57
2022/06/06 13:18:24;;;;;;;2.25;1.30;;;;;;;;;;5038656;28;20033;-56
2022/06/06 13:20:56;;;;;;;1.70;1.10;;;;;;;;;;5036774;28;20024;-57
2022/06/06 13:23:41;;;;;;;2.92;1.10;;;;;;;;;;5041738;28;20044;-56
2022/06/06 13:26:25;;;;;;;2.53;1.50;;;;;;;;;;5039005;28;20091;-55
2022/06/06 13:28:53;;;;;;;2.00;1.30;;;;;;;;;;5048776;28;20036;-56
2022/06/06 13:31:22;;;;;;;2.10;1.30;;;;;;;;;;5046404;28;20029;-57
2022/06/06 13:33:53;;;;;;;4.22;1.40;;;;;;;;;;5047261;28;20037;-55
2022/06/06 13:36:19;;;;;;;2.63;1.20;;;;;;;;;;5041329;28;20056;-55
2022/06/06 13:39:04;;;;;;;2.47;1.60;;;;;;;;;;5047027;28;20774;-56
2022/06/06 13:41:52;;;;;;;2.28;1.23;;;;;;;;;;5037720;28;20072;-56
2022/06/06 13:44:37;;;;;;;2.03;1.33;;;;;;;;;;5041899;28;20562;-54
2022/06/06 13:47:07;;;;;;;5.07;1.85;;;;;;;;;;5046489;28;20021;-55
2022/06/06 13:49:52;;;;;;;3.65;1.63;;;;;;;;;;5028785;28;20579;-54
2022/06/06 13:52:36;;;;;;;3.00;1.20;;;;;;;;;;5035877;28;20514;-56
2022/06/06 13:55:23;;;;;;;1.88;1.20;;;;;;;;;;5044996;28;20177;-56
2022/06/06 13:57:54;;;;;;;2.05;1.40;;;;;;;;;;5037206;28;20043;-54
2022/06/06 14:00:24;;;;;;;2.28;1.40;;;;;;;;;;5032643;28;20052;-55
2022/06/06 14:02:53;;;;;;;4.78;1.70;;;;;;;;;;5040142;28;20036;-54
2022/06/06 14:05:23;;;;;;;2.45;1.50;;;;;;;;;;5035746;28;20609;-53
2022/06/06 14:08:03;;;;;;;1.88;1.50;;;;;;;;;;5038851;28;20041;-55
2022/06/06 14:10:48;;;;;;;2.95;1.67;;;;;;;;;;5043987;28;20033;-55
2022/06/06 14:13:34;;;;;;;6.47;1.75;;;;;;;;;;5040342;28;20025;-56
2022/06/06 14:16:01;;;;;;;2.97;1.90;;;;;;;;;;5037681;28;20037;-55
2022/06/06 14:18:28;;;;;;;3.20;1.77;;;;;;;;;;5041475;28;20380;-55
2022/06/06 14:20:58;;;;;;;2.97;1.60;;;;;;;;;;5037561;28;20025;-56
2022/06/06 14:23:28;;;;;;;3.95;1.83;;;;;;;;;;5045023;28;20038;-55
2022/06/06 14:26:03;;;;;;;5.90;2.38;;;;;;;;;;5047948;28;20032;-56
2022/06/06 14:28:31;;;;;;;2.85;1.90;;;;;;;;;;5044265;28;20030;-57
2022/06/06 14:30:57;;;;;;;3.50;1.80;;;;;;;;;;5040345;28;20063;-56
2022/06/06 14:33:32;;;;;;;3.00;2.00;;;;;;;;;;5037592;28;20123;-55
2022/06/06 14:36:19;;;;;;;3.72;2.10;;;;;;;;;;5044633;28;20031;-56
2022/06/06 14:38:45;;;;;;;2.38;1.60;;;;;;;;;;5045782;28;20102;-56
2022/06/06 14:41:13;;;;;;;3.00;1.40;;;;;;;;;;5049955;28;20496;-55
2022/06/06 14:43:48;;;;;;;3.78;1.40;;;;;;;;;;5038660;28;20040;-54
2022/06/06 14:46:14;;;;;;;2.25;1.65;;;;;;;;;;5044845;28;20076;-55
2022/06/06 14:48:44;;;;;;;2.22;1.50;;;;;;;;;;5048869;28;20453;-54
2022/06/06 14:51:12;;;;;;;5.32;2.03;;;;;;;;;;5033984;28;20108;-56
2022/06/06 14:53:46;;;;;;;3.33;1.77;;;;;;;;;;5035790;28;20025;-56
2022/06/06 14:56:18;;;;;;;2.83;1.88;;;;;;;;;;5046768;28;20067;-54
2022/06/06 14:58:52;;;;;;;2.15;1.55;;;;;;;;;;5046922;28;20024;-55
2022/06/06 15:01:20;;;;;;;3.28;1.95;;;;;;;;;;5047047;28;20021;-56
2022/06/06 15:03:47;;;;;;;5.07;2.03;;;;;;;;;;5047598;28;20028;-56
2022/06/06 15:06:15;;;;;;;2.60;1.80;;;;;;;;;;5023793;28;20033;-56
2022/06/06 15:08:46;;;;;;;3.67;2.30;;;;;;;;;;5035314;28;20401;-55
2022/06/06 15:11:14;;;;;;;3.33;2.17;;;;;;;;;;5038115;28;20701;-55
2022/06/06 15:13:45;;;;;;;3.65;2.55;;;;;;;;;;5036675;28;20037;-55
2022/06/06 15:16:13;;;;;;;4.22;2.65;;;;;;;;;;5040086;28;20151;-54
2022/06/06 15:18:44;;;;;;;3.40;2.08;;;;;;;;;;5038215;28;20021;-54
2022/06/06 15:21:10;;;;;;;3.00;1.90;;;;;;;;;;5038441;28;20040;-54
2022/06/06 15:23:41;;;;;;;4.32;1.90;;;;;;;;;;5048668;28;20037;-56
2022/06/06 15:26:14;;;;;;;4.00;2.05;;;;;;;;;;5040481;28;20070;-54
2022/06/06 15:28:59;;;;;;;2.60;1.88;;;;;;;;;;5033816;28;20037;-55
2022/06/06 15:31:38;;;;;;;4.65;1.90;;;;;;;;;;5040206;28;20029;-55
2022/06/06 15:34:17;;;;;;;3.97;2.10;;;;;;;;;;5045910;28;20033;-55
2022/06/06 15:36:49;;;;;;;4.38;1.65;;;;;;;;;;5028613;28;20347;-53
2022/06/06 15:39:42;;;;;;;5.95;1.90;;;;;;;;;;5031289;28;20032;-56
2022/06/06 15:42:20;;;;;;;6.07;2.13;;;;;;;;;;5011990;28;20485;-55